createdAt,value
2023-04-03T00:01:01.641Z,65.06
2023-04-03T00:03:29.499Z,64.92
2023-04-03T00:05:57.097Z,66.33
2023-04-03T00:08:24.801Z,66.72
2023-04-03T00:10:52.531Z,66.71
2023-04-03T00:13:21.576Z,67.08
2023-04-03T00:15:49.274Z,67.58
2023-04-03T00:18:16.979Z,67.99
2023-04-03T00:20:44.807Z,68.23
2023-04-03T00:23:12.848Z,67.47
2023-04-03T00:25:40.720Z,68.44
2023-04-03T00:28:08.757Z,68.54
2023-04-03T00:30:38.186Z,67.89
2023-04-03T00:33:06.336Z,67.91
2023-04-03T00:35:35.986Z,67.96
2023-04-03T00:38:04.533Z,68.33
2023-04-03T00:40:37.393Z,69.61
2023-04-03T00:43:14.443Z,68.12
2023-04-03T00:45:45.610Z,68.30
2023-04-03T00:48:17.980Z,67.69
2023-04-03T00:50:47.136Z,68.02
2023-04-03T00:53:18.376Z,67.75
2023-04-03T00:55:48.170Z,67.12
2023-04-03T00:58:17.864Z,66.94
2023-04-03T01:00:54.634Z,66.75
2023-04-03T01:03:22.669Z,67.13
2023-04-03T01:05:50.804Z,67.72
2023-04-03T01:08:18.788Z,67.54
2023-04-03T01:10:46.434Z,67.82
2023-04-03T01:13:24.050Z,68.43
2023-04-03T01:15:53.466Z,69.20
2023-04-03T01:18:21.745Z,68.85
2023-04-03T01:21:24.997Z,69.66
2023-04-03T01:24:02.280Z,69.84
2023-04-03T01:26:30.396Z,69.87
2023-04-03T01:29:00.722Z,70.09
2023-04-03T01:31:36.269Z,70.90
2023-04-03T01:34:05.430Z,71.61
2023-04-03T01:36:33.962Z,70.70
2023-04-03T01:39:02.811Z,71.26
2023-04-03T01:41:31.139Z,71.04
2023-04-03T01:43:58.760Z,71.70
2023-04-03T01:46:26.655Z,71.62
2023-04-03T01:48:54.329Z,71.17
2023-04-03T01:51:23.831Z,70.47
2023-04-03T01:53:52.618Z,70.78
2023-04-03T01:56:21.122Z,72.03
2023-04-03T01:58:48.874Z,71.79
2023-04-03T02:01:17.242Z,71.26
2023-04-03T02:03:45.693Z,71.03
2023-04-03T02:06:13.407Z,73.11
2023-04-03T02:08:42.807Z,72.11
2023-04-03T02:11:10.422Z,72.38
2023-04-03T02:13:38.275Z,72.15
2023-04-03T02:16:10.845Z,71.73
2023-04-03T02:18:38.740Z,71.89
2023-04-03T02:21:12.370Z,71.67
2023-04-03T02:23:40.064Z,71.63
2023-04-03T02:26:11.514Z,71.55
2023-04-03T02:28:39.718Z,71.73
2023-04-03T02:31:08.343Z,72.77
2023-04-03T02:33:37.497Z,72.91
2023-04-03T02:36:07.408Z,73.29
2023-04-03T02:38:35.959Z,73.80
2023-04-03T02:41:04.949Z,74.11
2023-04-03T02:43:34.245Z,73.52
2023-04-03T02:46:01.924Z,73.41
2023-04-03T02:48:29.589Z,73.18
2023-04-03T02:50:57.427Z,74.60
2023-04-03T02:53:25.439Z,74.80
2023-04-03T02:55:53.179Z,74.80
2023-04-03T02:58:20.844Z,75.10
2023-04-03T03:00:49.843Z,75.16
2023-04-03T03:03:17.443Z,75.78
2023-04-03T03:05:45.630Z,76.34
2023-04-03T03:08:13.353Z,75.34
2023-04-03T03:10:41.071Z,74.87
2023-04-03T03:13:08.892Z,74.64
2023-04-03T03:15:36.583Z,74.18
2023-04-03T03:18:06.461Z,74.31
2023-04-03T03:20:34.484Z,74.64
2023-04-03T03:23:02.371Z,73.68
2023-04-03T03:25:30.000Z,73.99
2023-04-03T03:27:57.665Z,74.50
2023-04-03T03:30:26.247Z,74.93
2023-04-03T03:32:53.986Z,75.41
2023-04-03T03:35:23.068Z,74.57
2023-04-03T03:37:50.887Z,75.34
2023-04-03T03:40:18.825Z,75.31
2023-04-03T03:42:46.520Z,75.06
2023-04-03T03:45:14.272Z,74.98
2023-04-03T03:47:41.945Z,75.64
2023-04-03T03:50:11.216Z,75.35
2023-04-03T03:52:40.709Z,75.36
2023-04-03T03:55:09.107Z,76.21
2023-04-03T03:57:36.945Z,76.15
2023-04-03T04:00:05.147Z,76.01
2023-04-03T04:02:33.153Z,75.97
2023-04-03T04:05:00.994Z,75.33
2023-04-03T04:07:30.177Z,77.07
2023-04-03T04:09:59.269Z,76.57
2023-04-03T04:12:27.068Z,75.81
2023-04-03T04:14:54.726Z,75.43
2023-04-03T04:17:23.871Z,75.33
2023-04-03T04:19:51.591Z,74.91
2023-04-03T04:22:19.338Z,75.02
2023-04-03T04:24:47.073Z,75.60
2023-04-03T04:27:16.633Z,75.69
2023-04-03T04:29:44.406Z,74.84
2023-04-03T04:32:12.141Z,75.06
2023-04-03T04:34:39.809Z,75.42
2023-04-03T04:37:07.456Z,75.17
2023-04-03T04:39:35.782Z,75.54
2023-04-03T04:42:03.447Z,75.21
2023-04-03T04:44:32.442Z,76.46
2023-04-03T04:47:00.126Z,74.87
2023-04-03T04:49:27.811Z,74.70
2023-04-03T04:51:55.364Z,75.36
2023-04-03T04:54:23.121Z,75.04
2023-04-03T04:56:50.823Z,74.70
2023-04-03T04:59:20.614Z,74.89
2023-04-03T05:01:50.451Z,74.64
2023-04-03T05:04:18.780Z,74.63
2023-04-03T05:06:46.562Z,74.65
2023-04-03T05:09:14.225Z,74.78
2023-04-03T05:11:41.799Z,74.92
2023-04-03T05:14:09.422Z,73.89
2023-04-03T05:16:37.333Z,73.90
2023-04-03T05:19:06.355Z,74.32
2023-04-03T05:21:34.004Z,74.91
2023-04-03T05:24:03.620Z,74.46
2023-04-03T05:26:32.286Z,75.51
2023-04-03T05:29:00.375Z,74.61
2023-04-03T05:31:30.575Z,73.95
2023-04-03T05:33:58.464Z,73.78
2023-04-03T05:36:27.709Z,76.24
2023-04-03T05:38:57.301Z,75.60
2023-04-03T05:41:25.790Z,75.67
2023-04-03T05:43:53.438Z,76.18
2023-04-03T05:46:23.073Z,75.68
2023-04-03T05:48:50.917Z,75.03
2023-04-03T05:51:21.138Z,74.09
2023-04-03T05:53:52.009Z,74.16
2023-04-03T05:56:19.611Z,75.43
2023-04-03T05:58:47.330Z,75.12
2023-04-03T06:01:15.946Z,74.57
2023-04-03T06:03:43.744Z,74.95
2023-04-03T06:06:15.120Z,74.04
2023-04-03T06:08:42.820Z,74.30
2023-04-03T06:11:11.817Z,74.39
2023-04-03T06:13:39.468Z,74.48
2023-04-03T06:16:07.757Z,75.33
2023-04-03T06:18:35.316Z,74.62
2023-04-03T06:21:03.748Z,73.73
2023-04-03T06:23:31.351Z,73.29
2023-04-03T06:25:59.307Z,72.34
2023-04-03T06:28:28.393Z,70.06
2023-04-03T06:30:56.203Z,69.40
2023-04-03T06:33:23.852Z,68.80
2023-04-03T06:35:51.990Z,68.24
2023-04-03T06:38:19.727Z,67.89
2023-04-03T06:40:48.050Z,66.57
2023-04-03T06:43:15.701Z,68.31
2023-04-03T06:45:44.689Z,67.07
2023-04-03T06:48:12.624Z,66.63
2023-04-03T06:50:40.376Z,67.36
2023-04-03T06:53:08.132Z,66.92
2023-04-03T06:55:37.229Z,67.26
2023-04-03T06:58:05.546Z,67.45
2023-04-03T07:00:33.587Z,66.56
2023-04-03T07:03:02.715Z,65.11
2023-04-03T07:05:30.395Z,65.43
2023-04-03T07:07:58.063Z,64.23
2023-04-03T07:10:25.830Z,63.89
2023-04-03T07:12:53.663Z,64.99
2023-04-03T07:15:21.406Z,64.52
2023-04-03T07:17:49.569Z,66.01
2023-04-03T07:20:18.953Z,66.13
2023-04-03T07:22:46.848Z,64.67
2023-04-03T07:25:14.607Z,64.87
2023-04-03T07:27:42.435Z,62.91
2023-04-03T07:30:11.292Z,64.69
2023-04-03T07:32:39.065Z,62.84
2023-04-03T07:35:07.347Z,64.22
2023-04-03T07:37:36.725Z,63.11
2023-04-03T07:40:05.333Z,62.35
2023-04-03T07:42:33.030Z,60.70
2023-04-03T07:45:01.199Z,60.43
2023-04-03T07:47:29.074Z,60.90
2023-04-03T07:49:58.228Z,60.71
2023-04-03T07:52:26.631Z,60.69
2023-04-03T07:54:55.940Z,61.19
2023-04-03T07:57:23.620Z,60.57
2023-04-03T07:59:51.279Z,60.68
2023-04-03T08:02:18.883Z,60.02
2023-04-03T08:04:46.621Z,58.93
2023-04-03T08:07:14.388Z,59.23
2023-04-03T08:09:42.358Z,59.98
2023-04-03T08:12:12.487Z,60.07
2023-04-03T08:14:40.271Z,58.50
2023-04-03T08:17:10.460Z,57.57
2023-04-03T08:19:38.114Z,58.24
2023-04-03T08:22:06.273Z,58.11
2023-04-03T08:24:34.188Z,57.06
2023-04-03T08:27:01.972Z,56.76
2023-04-03T08:29:32.057Z,57.63
2023-04-03T08:32:00.744Z,56.82
2023-04-03T08:34:28.388Z,55.31
2023-04-03T08:36:56.329Z,54.87
2023-04-03T08:39:24.056Z,54.50
2023-04-03T08:41:52.132Z,54.40
2023-04-03T08:44:27.485Z,53.80
2023-04-03T08:47:05.534Z,52.53
2023-04-03T08:49:35.781Z,51.32
2023-04-03T08:52:12.183Z,51.84
2023-04-03T08:54:49.554Z,52.74
2023-04-03T08:57:17.553Z,53.18
2023-04-03T08:59:45.579Z,50.76
2023-04-03T09:02:27.571Z,50.37
2023-04-03T09:04:56.586Z,50.57
2023-04-03T09:07:32.655Z,51.53
2023-04-03T09:10:03.921Z,53.31
2023-04-03T09:12:40.135Z,50.65
2023-04-03T09:15:20.123Z,49.84
2023-04-03T09:18:04.874Z,49.54
2023-04-03T09:20:45.288Z,47.32
2023-04-03T09:23:21.731Z,47.83
2023-04-03T09:25:51.058Z,48.24
2023-04-03T09:28:18.813Z,46.30
2023-04-03T09:30:47.409Z,45.01
2023-04-03T09:33:17.538Z,44.99
2023-04-03T09:35:48.567Z,46.47
2023-04-03T09:38:20.067Z,44.78
2023-04-03T09:40:49.224Z,44.31
2023-04-03T09:43:28.516Z,44.45
2023-04-03T09:45:57.522Z,43.65
2023-04-03T09:48:29.237Z,42.35
2023-04-03T09:51:02.396Z,41.29
2023-04-03T09:53:37.534Z,41.36
2023-04-03T09:56:21.584Z,39.79
2023-04-03T09:58:51.952Z,38.93
2023-04-03T10:01:27.467Z,39.75
2023-04-03T10:04:08.512Z,40.54
2023-04-03T10:06:41.550Z,40.08
2023-04-03T10:09:19.471Z,41.77
2023-04-03T10:12:05.653Z,42.00
2023-04-03T10:14:34.589Z,42.23
2023-04-03T10:17:17.074Z,42.04
2023-04-03T10:19:50.275Z,43.24
2023-04-03T10:22:34.924Z,42.50
2023-04-03T10:25:11.801Z,43.96
2023-04-03T10:27:51.439Z,44.18
2023-04-03T10:30:32.460Z,44.18
2023-04-03T10:33:07.631Z,43.83
2023-04-03T10:35:47.159Z,43.02
2023-04-03T10:38:20.888Z,43.83
2023-04-03T10:40:56.969Z,43.50
2023-04-03T10:43:35.650Z,45.25
2023-04-03T10:46:12.146Z,43.32
2023-04-03T10:48:53.274Z,43.70
2023-04-03T10:51:30.010Z,43.23
2023-04-03T10:54:06.922Z,43.65
2023-04-03T10:56:39.179Z,41.89
2023-04-03T10:59:18.886Z,42.21
2023-04-03T11:01:50.158Z,41.44
2023-04-03T11:04:22.140Z,41.32
2023-04-03T11:06:55.681Z,42.41
2023-04-03T11:09:28.022Z,44.58
2023-04-03T11:12:03.160Z,44.29
2023-04-03T11:14:35.632Z,44.01
2023-04-03T11:17:17.512Z,44.32
2023-04-03T11:19:51.008Z,43.13
2023-04-03T11:22:26.046Z,42.97
2023-04-03T11:25:03.997Z,42.67
2023-04-03T11:27:39.165Z,41.34
2023-04-03T11:30:11.890Z,43.79
2023-04-03T11:32:57.849Z,43.15
2023-04-03T11:35:27.417Z,43.38
2023-04-03T11:37:57.671Z,43.59
2023-04-03T11:40:30.854Z,43.89
2023-04-03T11:43:08.718Z,42.41
2023-04-03T11:45:40.220Z,42.68
2023-04-03T11:48:29.370Z,41.58
2023-04-03T11:50:59.260Z,43.26
2023-04-03T11:53:36.633Z,42.43
2023-04-03T11:56:27.674Z,41.79
2023-04-03T11:59:19.350Z,41.70
2023-04-03T12:01:48.628Z,40.17
2023-04-03T12:04:19.159Z,40.24
2023-04-03T12:07:22.018Z,39.30
2023-04-03T12:10:01.560Z,41.17
2023-04-03T12:12:36.150Z,40.33
2023-04-03T12:15:27.772Z,38.92
2023-04-03T12:17:55.700Z,38.65
2023-04-03T12:20:54.329Z,38.32
2023-04-03T12:23:31.275Z,37.82
2023-04-03T12:26:22.843Z,40.13
2023-04-03T12:28:54.600Z,40.04
2023-04-03T12:31:25.422Z,41.33
2023-04-03T12:34:11.449Z,39.68
2023-04-03T12:36:48.801Z,39.36
2023-04-03T12:39:37.088Z,38.95
2023-04-03T12:42:24.209Z,40.14
2023-04-03T12:45:02.729Z,40.45
2023-04-03T12:47:37.107Z,39.42
2023-04-03T12:50:06.873Z,40.23
2023-04-03T12:52:39.916Z,40.48
2023-04-03T12:55:16.665Z,41.77
2023-04-03T12:57:46.600Z,40.14
2023-04-03T13:00:29.843Z,41.74
2023-04-03T13:02:57.703Z,40.54
2023-04-03T13:05:25.748Z,41.60
2023-04-03T13:08:00.125Z,40.97
2023-04-03T13:10:27.828Z,39.75
2023-04-03T13:12:59.339Z,39.28
2023-04-03T13:15:30.309Z,39.92
2023-04-03T13:17:58.374Z,39.18
2023-04-03T13:20:28.525Z,40.69
2023-04-03T13:23:01.695Z,39.74
2023-04-03T13:25:32.547Z,40.05
2023-04-03T13:28:13.321Z,40.16
2023-04-03T13:30:43.196Z,39.05
2023-04-03T13:33:23.756Z,39.39
2023-04-03T13:35:57.965Z,39.92
2023-04-03T13:38:28.144Z,40.12
2023-04-03T13:40:58.553Z,40.53
2023-04-03T13:43:29.115Z,39.25
2023-04-03T13:46:02.227Z,39.03
2023-04-03T13:48:37.904Z,37.82
2023-04-03T13:51:08.707Z,40.53
2023-04-03T13:53:44.660Z,40.72
2023-04-03T13:56:22.963Z,43.01
2023-04-03T13:59:06.265Z,41.72
2023-04-03T14:01:45.015Z,42.08
2023-04-03T14:04:17.327Z,39.41
2023-04-03T14:06:45.645Z,40.65
2023-04-03T14:09:13.949Z,40.18
2023-04-03T14:11:42.899Z,39.94
2023-04-03T14:14:16.006Z,39.30
2023-04-03T14:16:45.676Z,40.43
2023-04-03T14:19:21.756Z,39.63
2023-04-03T14:21:49.827Z,40.43
2023-04-03T14:24:17.629Z,41.00
2023-04-03T14:26:46.102Z,40.54
2023-04-03T14:29:16.276Z,39.65
2023-04-03T14:31:46.792Z,40.34
2023-04-03T14:34:15.659Z,38.36
2023-04-03T14:36:45.120Z,38.07
2023-04-03T14:39:17.886Z,38.30
2023-04-03T14:41:46.082Z,37.80
2023-04-03T14:44:15.078Z,37.66
2023-04-03T14:46:56.144Z,38.95
2023-04-03T14:49:29.068Z,38.87
2023-04-03T14:51:57.184Z,38.60
2023-04-03T14:54:28.646Z,37.38
2023-04-03T14:56:58.266Z,37.99
2023-04-03T14:59:28.595Z,36.12
2023-04-03T15:01:56.384Z,36.28
2023-04-03T15:04:24.181Z,35.43
2023-04-03T15:06:53.935Z,35.00
2023-04-03T15:09:24.700Z,34.97
2023-04-03T15:11:53.909Z,35.85
2023-04-03T15:14:35.409Z,34.78
2023-04-03T15:17:07.708Z,35.58
2023-04-03T15:19:39.674Z,36.77
2023-04-03T15:22:07.762Z,37.34
2023-04-03T15:24:35.554Z,36.59
2023-04-03T15:27:03.632Z,37.22
2023-04-03T15:29:31.328Z,37.00
2023-04-03T15:31:59.392Z,35.99
2023-04-03T15:34:28.500Z,35.59
2023-04-03T15:36:56.253Z,37.19
2023-04-03T15:39:24.638Z,36.30
2023-04-03T15:41:53.316Z,35.99
2023-04-03T15:44:20.971Z,35.95
2023-04-03T15:46:52.240Z,36.54
2023-04-03T15:49:20.929Z,34.61
2023-04-03T15:51:50.010Z,33.86
2023-04-03T15:54:17.957Z,33.52
2023-04-03T15:56:45.626Z,34.23
2023-04-03T15:59:13.358Z,34.71
2023-04-03T16:01:41.520Z,33.95
2023-04-03T16:04:11.030Z,34.64
2023-04-03T16:06:39.831Z,34.61
2023-04-03T16:09:11.659Z,34.91
2023-04-03T16:11:40.888Z,35.00
2023-04-03T16:14:08.982Z,35.76
2023-04-03T16:16:37.429Z,35.82
2023-04-03T16:19:06.494Z,35.43
2023-04-03T16:21:34.337Z,36.39
2023-04-03T16:24:03.185Z,37.03
2023-04-03T16:26:32.129Z,36.92
2023-04-03T16:28:59.849Z,36.23
2023-04-03T16:31:29.485Z,36.39
2023-04-03T16:33:58.346Z,36.49
2023-04-03T16:36:27.452Z,37.27
2023-04-03T16:38:55.092Z,37.09
2023-04-03T16:41:22.700Z,37.47
2023-04-03T16:43:52.444Z,37.32
2023-04-03T16:46:20.467Z,36.89
2023-04-03T16:48:48.245Z,36.96
2023-04-03T16:51:15.969Z,36.67
2023-04-03T16:53:43.947Z,36.79
2023-04-03T16:56:11.811Z,36.80
2023-04-03T16:58:39.383Z,37.16
2023-04-03T17:01:16.266Z,36.97
2023-04-03T17:03:44.400Z,37.21
2023-04-03T17:06:16.903Z,37.59
2023-04-03T17:08:44.896Z,37.62
2023-04-03T17:11:12.661Z,37.81
2023-04-03T17:13:40.373Z,39.07
2023-04-03T17:16:11.896Z,39.00
2023-04-03T17:18:41.226Z,38.66
2023-04-03T17:21:09.652Z,38.47
2023-04-03T17:23:40.540Z,39.17
2023-04-03T17:26:08.226Z,38.70
2023-04-03T17:28:36.922Z,39.13
2023-04-03T17:31:04.693Z,39.27
2023-04-03T17:33:32.339Z,39.22
2023-04-03T17:36:04.361Z,39.63
2023-04-03T17:38:32.300Z,40.40
2023-04-03T17:41:01.593Z,41.71
2023-04-03T17:43:30.693Z,44.39
2023-04-03T17:46:03.920Z,44.46
2023-04-03T17:48:31.858Z,46.02
2023-04-03T17:51:04.573Z,46.99
2023-04-03T17:53:32.298Z,47.31
2023-04-03T17:55:59.982Z,48.36
2023-04-03T17:58:28.340Z,48.74
2023-04-03T18:00:57.005Z,49.50
2023-04-03T18:03:24.739Z,50.48
2023-04-03T18:05:55.318Z,50.36
2023-04-03T18:08:24.562Z,51.18
2023-04-03T18:10:53.137Z,50.36
2023-04-03T18:13:20.786Z,51.14
2023-04-03T18:15:50.573Z,51.21
2023-04-03T18:18:18.283Z,50.94
2023-04-03T18:20:46.424Z,50.42
2023-04-03T18:23:14.168Z,49.96
2023-04-03T18:25:43.483Z,50.75
2023-04-03T18:28:11.412Z,50.95
2023-04-03T18:30:39.649Z,52.17
2023-04-03T18:33:07.585Z,51.96
2023-04-03T18:35:35.310Z,52.14
2023-04-03T18:38:03.178Z,51.89
2023-04-03T18:40:32.730Z,51.43
2023-04-03T18:43:03.155Z,51.58
2023-04-03T18:45:31.498Z,52.22
2023-04-03T18:47:59.573Z,52.47
2023-04-03T18:50:27.320Z,52.36
2023-04-03T18:52:55.100Z,52.20
2023-04-03T18:55:23.271Z,52.92
2023-04-03T18:57:51.054Z,52.27
2023-04-03T19:00:20.530Z,52.74
2023-04-03T19:02:49.683Z,52.25
2023-04-03T19:05:19.698Z,52.98
2023-04-03T19:07:49.278Z,52.98
2023-04-03T19:10:19.933Z,53.19
2023-04-03T19:12:50.049Z,53.63
2023-04-03T19:15:21.108Z,53.37
2023-04-03T19:17:48.971Z,54.12
2023-04-03T19:20:17.277Z,54.97
2023-04-03T19:22:45.336Z,54.30
2023-04-03T19:25:13.605Z,54.25
2023-04-03T19:27:42.499Z,54.54
2023-04-03T19:30:12.816Z,54.98
2023-04-03T19:32:42.008Z,55.63
2023-04-03T19:35:10.428Z,55.50
2023-04-03T19:37:38.345Z,55.73
2023-04-03T19:40:07.622Z,56.26
2023-04-03T19:42:36.841Z,56.00
2023-04-03T19:45:05.259Z,56.26
2023-04-03T19:47:33.374Z,55.74
2023-04-03T19:50:02.684Z,55.93
2023-04-03T19:52:30.427Z,55.89
2023-04-03T19:54:58.297Z,56.01
2023-04-03T19:57:26.124Z,56.82
2023-04-03T19:59:53.930Z,56.66
2023-04-03T20:02:21.693Z,57.06
2023-04-03T20:04:49.565Z,56.70
2023-04-03T20:07:18.782Z,56.88
2023-04-03T20:09:46.744Z,56.73
2023-04-03T20:12:14.499Z,56.61
2023-04-03T20:14:42.550Z,57.00
2023-04-03T20:17:10.396Z,57.47
2023-04-03T20:19:38.689Z,56.88
2023-04-03T20:22:06.412Z,56.48
2023-04-03T20:24:35.412Z,56.02
2023-04-03T20:27:03.188Z,56.64
2023-04-03T20:29:30.987Z,57.45
2023-04-03T20:31:58.795Z,58.46
2023-04-03T20:34:26.737Z,58.29
2023-04-03T20:36:55.259Z,58.15
2023-04-03T20:39:24.680Z,59.30
2023-04-03T20:41:54.540Z,58.04
2023-04-03T20:44:22.377Z,58.27
2023-04-03T20:46:53.441Z,58.28
2023-04-03T20:49:22.636Z,58.51
2023-04-03T20:51:51.242Z,58.07
2023-04-03T20:54:19.174Z,57.92
2023-04-03T20:56:47.329Z,58.56
2023-04-03T20:59:16.885Z,59.26
2023-04-03T21:01:44.838Z,57.96
2023-04-03T21:04:17.025Z,58.26
2023-04-03T21:07:23.017Z,58.50
2023-04-03T21:10:29.079Z,58.43
2023-04-03T21:13:34.745Z,58.74
2023-04-03T21:16:02.244Z,59.31
2023-04-03T21:19:03.726Z,59.92
2023-04-03T21:21:31.380Z,58.67
2023-04-03T21:23:59.254Z,59.17
2023-04-03T21:26:27.946Z,59.20
2023-04-03T21:28:56.532Z,59.49
2023-04-03T21:31:24.761Z,58.53
2023-04-03T21:33:54.017Z,59.49
2023-04-03T21:36:21.706Z,59.54
2023-04-03T21:38:51.548Z,59.91
2023-04-03T21:41:19.106Z,59.52
2023-04-03T21:43:47.860Z,61.12
2023-04-03T21:46:15.674Z,60.89
2023-04-03T21:48:43.434Z,60.26
2023-04-03T21:51:12.565Z,60.02
2023-04-03T21:53:41.571Z,59.84
2023-04-03T21:56:09.342Z,59.63
2023-04-03T21:58:37.071Z,59.78
2023-04-03T22:01:11.632Z,59.84
2023-04-03T22:03:40.905Z,59.91
2023-04-03T22:06:09.292Z,59.88
2023-04-03T22:08:38.730Z,59.96
2023-04-03T22:11:08.491Z,60.78
2023-04-03T22:13:37.396Z,60.02
2023-04-03T22:16:05.987Z,60.15
2023-04-03T22:18:34.150Z,60.69
2023-04-03T22:21:01.841Z,60.39
2023-04-03T22:23:29.494Z,58.98
2023-04-03T22:26:03.358Z,59.40
2023-04-03T22:28:32.589Z,58.74
2023-04-03T22:31:02.375Z,58.98
2023-04-03T22:33:30.383Z,59.21
2023-04-03T22:35:58.064Z,59.59
2023-04-03T22:38:25.764Z,60.63
2023-04-03T22:41:02.202Z,60.56
2023-04-03T22:43:31.586Z,59.88
2023-04-03T22:46:01.398Z,60.24
2023-04-03T22:48:29.446Z,59.52
2023-04-03T22:50:57.285Z,60.18
2023-04-03T22:53:25.008Z,59.86
2023-04-03T22:55:57.047Z,60.34
2023-04-03T22:58:26.948Z,59.64
2023-04-03T23:00:55.087Z,59.92
2023-04-03T23:03:23.365Z,60.87
2023-04-03T23:05:52.532Z,60.37
2023-04-03T23:08:21.027Z,61.21
2023-04-03T23:10:48.811Z,60.87
2023-04-03T23:13:16.496Z,60.24
2023-04-03T23:15:45.719Z,59.91
2023-04-03T23:18:13.481Z,59.50
2023-04-03T23:20:41.478Z,59.99
2023-04-03T23:23:09.336Z,59.40
2023-04-03T23:25:37.728Z,59.27
2023-04-03T23:28:05.420Z,58.58
2023-04-03T23:30:33.732Z,59.42
2023-04-03T23:33:02.771Z,59.51
2023-04-03T23:35:30.549Z,59.67
2023-04-03T23:37:58.276Z,59.90
2023-04-03T23:40:25.953Z,59.52
2023-04-03T23:42:53.577Z,59.53
2023-04-03T23:45:21.276Z,60.30
2023-04-03T23:47:49.089Z,60.29
2023-04-03T23:50:18.114Z,59.54
2023-04-03T23:52:45.722Z,59.79
2023-04-03T23:55:13.582Z,60.00
2023-04-03T23:57:42.919Z,60.96
